Alexander 3 — SW6137 — position and weather

sailwx.info

Track history (hours):
 
Tides and Currents Weather Stations Pressure Air Temp Water Temp Dewpoint Dewpoint Depression Visibility Wind Speed Wind Dir Waves Ship Positions

Alexander 3

Last reported at 2018-Feb-20 21:30 UTC. Time now 2018-Feb-20 21:50 UTC.
Position N 38°02' E 023°30'.

Length 38 m; draft 5.6 m.

Type: Tug. MMSI: 240733000.

Date/timePositionNaut miles runAvg speedWind from/ knotsBaromVisibWave heightAir tempDewpointWater temp
2018-Feb-20 21:30N 38°02' E 023°30'0 0.0
2018-Feb-20 21:00N 38°02' E 023°30'0 0.0
2018-Feb-20 20:30N 38°02' E 023°30'0 0.0
2018-Feb-20 20:00N 38°02' E 023°30'0 0.0
2018-Feb-20 19:30N 38°02' E 023°30'0 0.0
2018-Feb-20 19:01N 38°02' E 023°30'0 0.0
2018-Feb-20 18:30N 38°02' E 023°30'0 0.0
2018-Feb-20 18:00N 38°02' E 023°30'0 0.0
2018-Feb-20 17:30N 38°02' E 023°30'0 0.0
2018-Feb-20 17:00N 38°02' E 023°30'0 0.0
2018-Feb-20 16:30N 38°02' E 023°30'0 0.0
2018-Feb-20 16:00N 38°02' E 023°30'0 0.0
2018-Feb-20 15:30N 38°02' E 023°30'0 0.0
2018-Feb-20 15:00N 38°02' E 023°30'0 0.0
2018-Feb-20 14:30N 38°02' E 023°30'0 0.0
2018-Feb-20 14:00N 38°02' E 023°30'0 0.0
2018-Feb-20 13:30N 38°02' E 023°30'0 0.0
2018-Feb-20 13:00N 38°02' E 023°30'0 0.0
2018-Feb-20 12:30N 38°02' E 023°30'0 0.0
2018-Feb-20 12:00N 38°02' E 023°30'0 0.0
2018-Feb-20 11:30N 38°02' E 023°30'0 0.0
2018-Feb-20 11:00N 38°02' E 023°30'0 0.0
2018-Feb-20 10:30N 38°02' E 023°30'0 0.0
2018-Feb-20 10:00N 38°02' E 023°30'0 0.0
2018-Feb-20 09:30N 38°02' E 023°30'0 0.0
2018-Feb-20 09:00N 38°02' E 023°30'0 0.0
2018-Feb-20 08:30N 38°02' E 023°30'0 0.0
2018-Feb-20 08:00N 38°02' E 023°30'0 0.0
2018-Feb-20 07:30N 38°02' E 023°30'0 0.0
2018-Feb-20 07:00N 38°02' E 023°30'0 0.0
2018-Feb-20 06:30N 38°02' E 023°30'0 0.0
2018-Feb-20 06:00N 38°02' E 023°30'0 0.0
2018-Feb-20 05:30N 38°02' E 023°30'0 0.0
2018-Feb-20 05:00N 38°02' E 023°30'0 0.0
2018-Feb-20 04:30N 38°02' E 023°30'0 0.0
2018-Feb-20 04:00N 38°02' E 023°30'0 0.0
2018-Feb-20 03:30N 38°02' E 023°30'0 0.0
2018-Feb-20 03:00N 38°02' E 023°30'0 0.0
2018-Feb-20 02:30N 38°02' E 023°30'0 0.0
2018-Feb-20 02:00N 38°02' E 023°30'0 0.0
2018-Feb-20 01:30N 38°02' E 023°30'0 0.0
2018-Feb-20 01:00N 38°02' E 023°30'0 0.0
2018-Feb-20 00:30N 38°02' E 023°30'0 0.0
2018-Feb-20 00:00N 38°02' E 023°30'0 0.0
2018-Feb-19 23:30N 38°02' E 023°30'0 0.0
2018-Feb-19 23:00N 38°02' E 023°30'0 0.0
2018-Feb-19 22:30N 38°02' E 023°30'0 0.0
2018-Feb-19 22:01N 38°02' E 023°30'0 0.0
2018-Feb-19 21:30N 38°02' E 023°30'0 0.0
2018-Feb-19 21:00N 38°02' E 023°30'0 0.0
2018-Feb-19 20:31N 38°02' E 023°30'0 0.0
2018-Feb-19 20:00N 38°02' E 023°30'0 0.0
2018-Feb-19 19:30N 38°02' E 023°30'0 0.0
2018-Feb-19 19:00N 38°02' E 023°30'0 0.0
2018-Feb-19 18:31N 38°02' E 023°30'0 0.0
2018-Feb-19 18:00N 38°02' E 023°30'0 0.0
2018-Feb-19 17:30N 38°02' E 023°30'0 0.4
2018-Feb-19 17:00N 38°02' E 023°31'0 0.8
2018-Feb-19 16:30N 38°02' E 023°31'1 2.6
2018-Feb-19 16:00N 38°01' E 023°31'4 8.2
2018-Feb-19 15:31N 37°57' E 023°34'3 6.3
2018-Feb-19 15:00N 37°56' E 023°38'0 0.0
2018-Feb-19 14:30N 37°56' E 023°38'0 0.0
2018-Feb-19 14:00N 37°56' E 023°38'1 0.0
2018-Feb-17 12:20N 37°56' E 023°37'0 0.0
2018-Feb-17 12:00N 37°56' E 023°37'2 3.0
2018-Feb-17 11:30N 37°57' E 023°37'0 0.0
2018-Feb-17 11:00N 37°57' E 023°37'0 0.0
2018-Feb-17 10:30N 37°57' E 023°37'0 0.0
2018-Feb-17 10:00N 37°57' E 023°37'0 0.0
2018-Feb-17 09:30N 37°57' E 023°37'0 0.0
2018-Feb-17 09:00N 37°57' E 023°37'0 0.0
2018-Feb-17 08:30N 37°57' E 023°37'0 0.0
2018-Feb-17 08:00N 37°57' E 023°37'1 2.5
2018-Feb-17 07:30N 37°57' E 023°35'1 1.3
2018-Feb-17 07:00N 37°57' E 023°36'1 1.3
2018-Feb-17 06:31N 37°57' E 023°37'0 0.0
2018-Feb-17 06:00N 37°57' E 023°37'0 0.0
2018-Feb-17 05:30N 37°57' E 023°37'0 0.8
2018-Feb-17 05:01N 37°57' E 023°36'0 0.1
2018-Feb-17 04:30N 37°57' E 023°36'2 3.4
2018-Feb-17 04:00N 37°56' E 023°37'0 0.0
2018-Feb-16 11:54N 37°56' E 023°37'0 0.0
2018-Feb-16 11:30N 37°56' E 023°37'0 0.0
2018-Feb-16 11:00N 37°56' E 023°37'0 0.0
2018-Feb-16 10:31N 37°56' E 023°37'0 0.0
2018-Feb-16 10:00N 37°56' E 023°37'0 0.0
2018-Feb-16 09:31N 37°56' E 023°37'2 4.1
2018-Feb-16 09:00N 37°57' E 023°35'0 0.3
2018-Feb-16 08:30N 37°57' E 023°35'1 1.9
2018-Feb-16 08:00N 37°56' E 023°35'0 0.4
2018-Feb-16 07:30N 37°56' E 023°35'1 1.6
2018-Feb-16 07:01N 37°57' E 023°35'0 0.6
2018-Feb-16 06:31N 37°57' E 023°35'2 3.7
2018-Feb-16 06:00N 37°56' E 023°37'0 0.0
2018-Feb-16 05:30N 37°56' E 023°37'0 0.0
2018-Feb-16 05:01N 37°56' E 023°37'0 0.0
2018-Feb-16 04:31N 37°56' E 023°37'0 0.0
2018-Feb-16 04:01N 37°56' E 023°37'0 0.0
2018-Feb-15 19:50N 37°56' E 023°37'2 6.4
2018-Feb-15 19:30N 37°57' E 023°35'0 0.4
2018-Feb-15 19:01N 37°57' E 023°35'2 3.6
2018-Feb-15 18:30N 37°56' E 023°36'2 3.6
2018-Feb-15 18:00N 37°57' E 023°35'0 0.5
2018-Feb-15 17:30N 37°57' E 023°35'2 3.6
2018-Feb-15 17:00N 37°56' E 023°37'0 1.0
2018-Feb-15 16:30N 37°56' E 023°37'0 0.0
2018-Feb-15 16:00N 37°56' E 023°37'0 0.0
2018-Feb-15 15:30N 37°56' E 023°37'0 0.0
2018-Feb-15 15:00N 37°56' E 023°37'0 0.0
2018-Feb-15 14:30N 37°56' E 023°37'0 0.0
2018-Feb-15 14:00N 37°56' E 023°37'0 0.0
2018-Feb-15 13:30N 37°56' E 023°37'0 0.0
2018-Feb-15 13:00N 37°56' E 023°37'0 0.0
2018-Feb-15 12:30N 37°56' E 023°37'0 0.0
2018-Feb-15 12:00N 37°56' E 023°37'0 0.0
2018-Feb-15 11:30N 37°56' E 023°37'0 0.0
2018-Feb-15 11:00N 37°56' E 023°37'0 0.0
2018-Feb-15 10:30N 37°56' E 023°37'0 0.0
2018-Feb-15 10:00N 37°56' E 023°37'0 0.0
2018-Feb-15 09:30N 37°56' E 023°37'0 0.0
2018-Feb-15 09:00N 37°56' E 023°37'0 0.0
2018-Feb-15 08:30N 37°56' E 023°37'0 0.0
2018-Feb-15 08:00N 37°56' E 023°37'0 0.0
2018-Feb-15 07:30N 37°56' E 023°37'0 0.0
2018-Feb-15 07:00N 37°56' E 023°37'0 0.0
2018-Feb-15 06:30N 37°56' E 023°37'0 0.0
2018-Feb-15 06:00N 37°56' E 023°37'0 0.0
2018-Feb-15 05:30N 37°56' E 023°37'0 0.0
2018-Feb-15 05:00N 37°56' E 023°37'0 0.0
2018-Feb-15 04:30N 37°56' E 023°37'0 0.0
2018-Feb-15 04:00N 37°56' E 023°37'0 0.0
2018-Feb-15 03:14N 37°56' E 023°37'0 0.0
2018-Feb-15 03:00N 37°56' E 023°37'0 0.0
2018-Feb-15 02:30N 37°56' E 023°37'0 0.0
2018-Feb-15 02:00N 37°56' E 023°37'0 0.0
2018-Feb-15 01:31N 37°56' E 023°37'0 0.0
2018-Feb-15 01:01N 37°56' E 023°37'0 0.0
2018-Feb-15 00:31N 37°56' E 023°37'0 0.0
2018-Feb-15 00:00N 37°56' E 023°37'0 0.0
2018-Feb-14 23:30N 37°56' E 023°37'0 0.0
2018-Feb-14 23:00N 37°56' E 023°37'0 0.0
2018-Feb-14 22:30N 37°56' E 023°37'0 0.0
2018-Feb-14 22:01N 37°56' E 023°37'0 0.0
2018-Feb-14 21:30N 37°56' E 023°37'0 0.0
2018-Feb-14 21:00N 37°56' E 023°37'0 0.0
2018-Feb-14 20:30N 37°56' E 023°37'0 0.0
2018-Feb-14 20:01N 37°56' E 023°37'0 0.0
2018-Feb-14 19:30N 37°56' E 023°37'0 0.0
2018-Feb-14 19:01N 37°56' E 023°37'0 0.0
2018-Feb-14 18:30N 37°56' E 023°37'0 0.0
2018-Feb-14 18:00N 37°56' E 023°37'0 0.0
2018-Feb-14 17:31N 37°56' E 023°37'0 0.0
2018-Feb-14 17:01N 37°56' E 023°37'0 0.0
2018-Feb-14 16:31N 37°56' E 023°37'0 0.0
2018-Feb-14 16:00N 37°56' E 023°37'0 0.0
2018-Feb-14 15:30N 37°56' E 023°37'0 0.0
2018-Feb-14 15:01N 37°56' E 023°37'0 0.0
2018-Feb-14 14:31N 37°56' E 023°37'2 4.1
2018-Feb-14 14:00N 37°57' E 023°35'1 1.7
2018-Feb-14 13:30N 37°56' E 023°35'0 0.3
2018-Feb-14 13:01N 37°57' E 023°35'1 1.3
2018-Feb-14 12:30N 37°57' E 023°35'1 2.1
2018-Feb-14 11:59N 37°57' E 023°37'0 0.0
2018-Feb-14 11:31N 37°57' E 023°37'0 0.0
2018-Feb-14 11:01N 37°57' E 023°37'0 0.0
2018-Feb-14 10:31N 37°57' E 023°37'0 0.0
2018-Feb-14 10:01N 37°57' E 023°37'0 0.0
2018-Feb-14 09:30N 37°57' E 023°37'0 0.0
2018-Feb-14 09:01N 37°57' E 023°37'0 0.0
2018-Feb-14 08:31N 37°57' E 023°37'0 0.0
2018-Feb-14 08:01N 37°57' E 023°37'0 0.6
2018-Feb-14 07:31N 37°57' E 023°36'1 1.4
2018-Feb-14 07:00N 37°57' E 023°36'1 1.4
2018-Feb-14 06:30N 37°57' E 023°35'1 2.0
2018-Feb-14 06:00N 37°58' E 023°36'1 2.1
2018-Feb-14 05:31N 37°57' E 023°36'1 1.8
2018-Feb-14 05:00N 37°56' E 023°37'0 0.0
2018-Feb-14 04:30N 37°56' E 023°37'0 0.0
2018-Feb-14 04:00N 37°56' E 023°37'0 0.0
2018-Feb-14 03:30N 37°56' E 023°37'0 0.0
2018-Feb-13 11:53N 37°56' E 023°37'0 0.0
2018-Feb-13 11:30N 37°56' E 023°37'0 0.0
2018-Feb-13 11:00N 37°56' E 023°37'0 0.0
2018-Feb-13 10:30N 37°56' E 023°37'0 0.0
2018-Feb-13 10:00N 37°56' E 023°37'0 0.0
2018-Feb-13 09:30N 37°56' E 023°37'0 0.0
2018-Feb-13 09:00N 37°56' E 023°37'4 7.4
2018-Feb-13 08:31N 37°58' E 023°33'2 3.7
2018-Feb-13 08:00N 37°59' E 023°33'3 6.4
2018-Feb-13 07:31N 38°02' E 023°31'0 0.5
2018-Feb-13 06:59N 38°02' E 023°30'0 0.0
2018-Feb-13 06:30N 38°02' E 023°30'0 0.0
2018-Feb-13 06:00N 38°02' E 023°30'0 0.0
2018-Feb-13 05:30N 38°02' E 023°30'0 0.0
2018-Feb-13 05:00N 38°02' E 023°30'0 0.0
2018-Feb-13 04:30N 38°02' E 023°30'0 0.0
2018-Feb-13 04:00N 38°02' E 023°30'0 0.0
2018-Feb-13 03:30N 38°02' E 023°30'0 0.0
2018-Feb-13 03:00N 38°02' E 023°30'0 0.0
2018-Feb-13 02:30N 38°02' E 023°30'0 0.0
2018-Feb-13 02:00N 38°02' E 023°30'0 0.0
2018-Feb-13 01:30N 38°02' E 023°30'0 0.0
2018-Feb-13 01:00N 38°02' E 023°30'0 0.0
2018-Feb-13 00:30N 38°02' E 023°30'0 0.0
2018-Feb-13 00:00N 38°02' E 023°30'0 0.0
2018-Feb-12 23:30N 38°02' E 023°30'0 0.0
2018-Feb-12 23:00N 38°02' E 023°30'0 0.0
2018-Feb-12 22:30N 38°02' E 023°30'0 0.0
2018-Feb-12 22:00N 38°02' E 023°30'0 0.7
2018-Feb-12 21:30N 38°02' E 023°31'0 0.7
2018-Feb-12 21:00N 38°02' E 023°30'0 0.0
2018-Feb-12 20:30N 38°02' E 023°30'0 0.0
2018-Feb-12 20:00N 38°02' E 023°30'0 0.0
2018-Feb-12 19:30N 38°02' E 023°30'0 0.0
2018-Feb-12 19:00N 38°02' E 023°30'0 0.0
2018-Feb-12 18:30N 38°02' E 023°30'0 0.0
2018-Feb-12 18:00N 38°02' E 023°30'0 0.0
2018-Feb-12 17:30N 38°02' E 023°30'0 0.0
2018-Feb-12 17:00N 38°02' E 023°30'0 0.0
2018-Feb-12 16:30N 38°02' E 023°30'0 0.0
2018-Feb-12 16:00N 38°02' E 023°30'0 0.0
2018-Feb-12 15:30N 38°02' E 023°30'0 0.0
2018-Feb-12 15:00N 38°02' E 023°30'0 0.0
2018-Feb-12 14:30N 38°02' E 023°30'0 0.0
2018-Feb-12 14:00N 38°02' E 023°30'0 0.0
2018-Feb-12 13:30N 38°02' E 023°30'0 0.0
2018-Feb-12 13:00N 38°02' E 023°30'0 0.0
2018-Feb-12 12:30N 38°02' E 023°30'0 0.0
2018-Feb-12 12:00N 38°02' E 023°30'0 0.0
2018-Feb-12 11:30N 38°02' E 023°30'0 0.0
2018-Feb-12 11:00N 38°02' E 023°30'0 0.0
2018-Feb-12 10:30N 38°02' E 023°30'0 0.0
2018-Feb-12 09:59N 38°02' E 023°30'0 0.0
2018-Feb-12 09:30N 38°02' E 023°30'0 0.0
2018-Feb-12 09:00N 38°02' E 023°30'0 0.0
2018-Feb-12 08:30N 38°02' E 023°30'0 0.0
2018-Feb-12 08:00N 38°02' E 023°30'0 0.0
2018-Feb-12 07:30N 38°02' E 023°30'0 0.0
2018-Feb-12 07:00N 38°02' E 023°30'0 0.0
2018-Feb-12 06:30N 38°02' E 023°30'0 0.0
2018-Feb-12 06:00N 38°02' E 023°30'0 0.0
2018-Feb-12 05:30N 38°02' E 023°30'0 0.0
2018-Feb-12 05:00N 38°02' E 023°30'0 0.0
2018-Feb-12 04:30N 38°02' E 023°30'0 0.0
2018-Feb-12 04:00N 38°02' E 023°30'0 0.0
2018-Feb-12 03:30N 38°02' E 023°30'0 0.0
2018-Feb-12 03:00N 38°02' E 023°30'0 0.0
2018-Feb-12 02:30N 38°02' E 023°30'0 0.0
2018-Feb-12 02:00N 38°02' E 023°30'0 0.0
2018-Feb-12 01:30N 38°02' E 023°30'0 0.0
2018-Feb-12 01:00N 38°02' E 023°30'0 0.0
2018-Feb-12 00:30N 38°02' E 023°30'0 0.0
2018-Feb-12 00:00N 38°02' E 023°30'0 0.0
2018-Feb-11 23:30N 38°02' E 023°30'0 0.0
2018-Feb-11 23:00N 38°02' E 023°30'0 0.0
2018-Feb-11 22:30N 38°02' E 023°30'0 0.0
2018-Feb-11 22:00N 38°02' E 023°30'0 0.0
2018-Feb-11 21:30N 38°02' E 023°30'0 0.0
2018-Feb-11 21:00N 38°02' E 023°30'0 0.0
2018-Feb-11 20:30N 38°02' E 023°30'0 0.0
2018-Feb-11 20:00N 38°02' E 023°30'0 0.0
2018-Feb-11 19:30N 38°02' E 023°30'0 0.0
2018-Feb-11 19:00N 38°02' E 023°30'0 0.0
2018-Feb-11 18:30N 38°02' E 023°30'0 0.0
2018-Feb-11 18:00N 38°02' E 023°30'0 1.0
2018-Feb-11 17:30N 38°02' E 023°31'510.3
2018-Feb-11 17:00N 37°57' E 023°34'3 6.2
2018-Feb-11 16:30N 37°56' E 023°37'  
Track history (hours):
 
Tides and Currents Weather Stations Pressure Air Temp Water Temp Dewpoint Dewpoint Depression Visibility Wind Speed Wind Dir Waves Ship Positions

Alexander 3

Last reported at 2018-Feb-20 21:30 UTC. Time now 2018-Feb-20 21:50 UTC.
Position N 38°02' E 023°30'.

Length 38 m; draft 5.6 m.

Type: Tug. MMSI: 240733000.

Date/timePositionNaut miles runAvg speedWind from/ knotsBaromVisibWave heightAir tempDewpointWater temp
2018-Feb-20 21:30N 38°02' E 023°30'0 0.0
2018-Feb-20 21:00N 38°02' E 023°30'0 0.0
2018-Feb-20 20:30N 38°02' E 023°30'0 0.0
2018-Feb-20 20:00N 38°02' E 023°30'0 0.0
2018-Feb-20 19:30N 38°02' E 023°30'0 0.0
2018-Feb-20 19:01N 38°02' E 023°30'0 0.0
2018-Feb-20 18:30N 38°02' E 023°30'0 0.0
2018-Feb-20 18:00N 38°02' E 023°30'0 0.0
2018-Feb-20 17:30N 38°02' E 023°30'0 0.0
2018-Feb-20 17:00N 38°02' E 023°30'0 0.0
2018-Feb-20 16:30N 38°02' E 023°30'0 0.0
2018-Feb-20 16:00N 38°02' E 023°30'0 0.0
2018-Feb-20 15:30N 38°02' E 023°30'0 0.0
2018-Feb-20 15:00N 38°02' E 023°30'0 0.0
2018-Feb-20 14:30N 38°02' E 023°30'0 0.0
2018-Feb-20 14:00N 38°02' E 023°30'0 0.0
2018-Feb-20 13:30N 38°02' E 023°30'0 0.0
2018-Feb-20 13:00N 38°02' E 023°30'0 0.0
2018-Feb-20 12:30N 38°02' E 023°30'0 0.0
2018-Feb-20 12:00N 38°02' E 023°30'0 0.0
2018-Feb-20 11:30N 38°02' E 023°30'0 0.0
2018-Feb-20 11:00N 38°02' E 023°30'0 0.0
2018-Feb-20 10:30N 38°02' E 023°30'0 0.0
2018-Feb-20 10:00N 38°02' E 023°30'0 0.0
2018-Feb-20 09:30N 38°02' E 023°30'0 0.0
2018-Feb-20 09:00N 38°02' E 023°30'0 0.0
2018-Feb-20 08:30N 38°02' E 023°30'0 0.0
2018-Feb-20 08:00N 38°02' E 023°30'0 0.0
2018-Feb-20 07:30N 38°02' E 023°30'0 0.0
2018-Feb-20 07:00N 38°02' E 023°30'0 0.0
2018-Feb-20 06:30N 38°02' E 023°30'0 0.0
2018-Feb-20 06:00N 38°02' E 023°30'0 0.0
2018-Feb-20 05:30N 38°02' E 023°30'0 0.0
2018-Feb-20 05:00N 38°02' E 023°30'0 0.0
2018-Feb-20 04:30N 38°02' E 023°30'0 0.0
2018-Feb-20 04:00N 38°02' E 023°30'0 0.0
2018-Feb-20 03:30N 38°02' E 023°30'0 0.0
2018-Feb-20 03:00N 38°02' E 023°30'0 0.0
2018-Feb-20 02:30N 38°02' E 023°30'0 0.0
2018-Feb-20 02:00N 38°02' E 023°30'0 0.0
2018-Feb-20 01:30N 38°02' E 023°30'0 0.0
2018-Feb-20 01:00N 38°02' E 023°30'0 0.0
2018-Feb-20 00:30N 38°02' E 023°30'0 0.0
2018-Feb-20 00:00N 38°02' E 023°30'0 0.0
2018-Feb-19 23:30N 38°02' E 023°30'0 0.0
2018-Feb-19 23:00N 38°02' E 023°30'0 0.0
2018-Feb-19 22:30N 38°02' E 023°30'0 0.0
2018-Feb-19 22:01N 38°02' E 023°30'0 0.0
2018-Feb-19 21:30N 38°02' E 023°30'0 0.0
2018-Feb-19 21:00N 38°02' E 023°30'0 0.0
2018-Feb-19 20:31N 38°02' E 023°30'0 0.0
2018-Feb-19 20:00N 38°02' E 023°30'0 0.0
2018-Feb-19 19:30N 38°02' E 023°30'0 0.0
2018-Feb-19 19:00N 38°02' E 023°30'0 0.0
2018-Feb-19 18:31N 38°02' E 023°30'0 0.0
2018-Feb-19 18:00N 38°02' E 023°30'0 0.0
2018-Feb-19 17:30N 38°02' E 023°30'0 0.4
2018-Feb-19 17:00N 38°02' E 023°31'0 0.8
2018-Feb-19 16:30N 38°02' E 023°31'1 2.6
2018-Feb-19 16:00N 38°01' E 023°31'4 8.2
2018-Feb-19 15:31N 37°57' E 023°34'3 6.3
2018-Feb-19 15:00N 37°56' E 023°38'0 0.0
2018-Feb-19 14:30N 37°56' E 023°38'0 0.0
2018-Feb-19 14:00N 37°56' E 023°38'1 0.0
2018-Feb-17 12:20N 37°56' E 023°37'0 0.0
2018-Feb-17 12:00N 37°56' E 023°37'2 3.0
2018-Feb-17 11:30N 37°57' E 023°37'0 0.0
2018-Feb-17 11:00N 37°57' E 023°37'0 0.0
2018-Feb-17 10:30N 37°57' E 023°37'0 0.0
2018-Feb-17 10:00N 37°57' E 023°37'0 0.0
2018-Feb-17 09:30N 37°57' E 023°37'0 0.0
2018-Feb-17 09:00N 37°57' E 023°37'0 0.0
2018-Feb-17 08:30N 37°57' E 023°37'0 0.0
2018-Feb-17 08:00N 37°57' E 023°37'1 2.5
2018-Feb-17 07:30N 37°57' E 023°35'1 1.3
2018-Feb-17 07:00N 37°57' E 023°36'1 1.3
2018-Feb-17 06:31N 37°57' E 023°37'0 0.0
2018-Feb-17 06:00N 37°57' E 023°37'0 0.0
2018-Feb-17 05:30N 37°57' E 023°37'0 0.8
2018-Feb-17 05:01N 37°57' E 023°36'0 0.1
2018-Feb-17 04:30N 37°57' E 023°36'2 3.4
2018-Feb-17 04:00N 37°56' E 023°37'0 0.0
2018-Feb-16 11:54N 37°56' E 023°37'0 0.0
2018-Feb-16 11:30N 37°56' E 023°37'0 0.0
2018-Feb-16 11:00N 37°56' E 023°37'0 0.0
2018-Feb-16 10:31N 37°56' E 023°37'0 0.0
2018-Feb-16 10:00N 37°56' E 023°37'0 0.0
2018-Feb-16 09:31N 37°56' E 023°37'2 4.1
2018-Feb-16 09:00N 37°57' E 023°35'0 0.3
2018-Feb-16 08:30N 37°57' E 023°35'1 1.9
2018-Feb-16 08:00N 37°56' E 023°35'0 0.4
2018-Feb-16 07:30N 37°56' E 023°35'1 1.6
2018-Feb-16 07:01N 37°57' E 023°35'0 0.6
2018-Feb-16 06:31N 37°57' E 023°35'2 3.7
2018-Feb-16 06:00N 37°56' E 023°37'0 0.0
2018-Feb-16 05:30N 37°56' E 023°37'0 0.0
2018-Feb-16 05:01N 37°56' E 023°37'0 0.0
2018-Feb-16 04:31N 37°56' E 023°37'0 0.0
2018-Feb-16 04:01N 37°56' E 023°37'0 0.0
2018-Feb-15 19:50N 37°56' E 023°37'2 6.4
2018-Feb-15 19:30N 37°57' E 023°35'0 0.4
2018-Feb-15 19:01N 37°57' E 023°35'2 3.6
2018-Feb-15 18:30N 37°56' E 023°36'2 3.6
2018-Feb-15 18:00N 37°57' E 023°35'0 0.5
2018-Feb-15 17:30N 37°57' E 023°35'2 3.6
2018-Feb-15 17:00N 37°56' E 023°37'0 1.0
2018-Feb-15 16:30N 37°56' E 023°37'0 0.0
2018-Feb-15 16:00N 37°56' E 023°37'0 0.0
2018-Feb-15 15:30N 37°56' E 023°37'0 0.0
2018-Feb-15 15:00N 37°56' E 023°37'0 0.0
2018-Feb-15 14:30N 37°56' E 023°37'0 0.0
2018-Feb-15 14:00N 37°56' E 023°37'0 0.0
2018-Feb-15 13:30N 37°56' E 023°37'0 0.0
2018-Feb-15 13:00N 37°56' E 023°37'0 0.0
2018-Feb-15 12:30N 37°56' E 023°37'0 0.0
2018-Feb-15 12:00N 37°56' E 023°37'0 0.0
2018-Feb-15 11:30N 37°56' E 023°37'0 0.0
2018-Feb-15 11:00N 37°56' E 023°37'0 0.0
2018-Feb-15 10:30N 37°56' E 023°37'0 0.0
2018-Feb-15 10:00N 37°56' E 023°37'0 0.0
2018-Feb-15 09:30N 37°56' E 023°37'0 0.0
2018-Feb-15 09:00N 37°56' E 023°37'0 0.0
2018-Feb-15 08:30N 37°56' E 023°37'0 0.0
2018-Feb-15 08:00N 37°56' E 023°37'0 0.0
2018-Feb-15 07:30N 37°56' E 023°37'0 0.0
2018-Feb-15 07:00N 37°56' E 023°37'0 0.0
2018-Feb-15 06:30N 37°56' E 023°37'0 0.0
2018-Feb-15 06:00N 37°56' E 023°37'0 0.0
2018-Feb-15 05:30N 37°56' E 023°37'0 0.0
2018-Feb-15 05:00N 37°56' E 023°37'0 0.0
2018-Feb-15 04:30N 37°56' E 023°37'0 0.0
2018-Feb-15 04:00N 37°56' E 023°37'0 0.0
2018-Feb-15 03:14N 37°56' E 023°37'0 0.0
2018-Feb-15 03:00N 37°56' E 023°37'0 0.0
2018-Feb-15 02:30N 37°56' E 023°37'0 0.0
2018-Feb-15 02:00N 37°56' E 023°37'0 0.0
2018-Feb-15 01:31N 37°56' E 023°37'0 0.0
2018-Feb-15 01:01N 37°56' E 023°37'0 0.0
2018-Feb-15 00:31N 37°56' E 023°37'0 0.0
2018-Feb-15 00:00N 37°56' E 023°37'0 0.0
2018-Feb-14 23:30N 37°56' E 023°37'0 0.0
2018-Feb-14 23:00N 37°56' E 023°37'0 0.0
2018-Feb-14 22:30N 37°56' E 023°37'0 0.0
2018-Feb-14 22:01N 37°56' E 023°37'0 0.0
2018-Feb-14 21:30N 37°56' E 023°37'0 0.0
2018-Feb-14 21:00N 37°56' E 023°37'0 0.0
2018-Feb-14 20:30N 37°56' E 023°37'0 0.0
2018-Feb-14 20:01N 37°56' E 023°37'0 0.0
2018-Feb-14 19:30N 37°56' E 023°37'0 0.0
2018-Feb-14 19:01N 37°56' E 023°37'0 0.0
2018-Feb-14 18:30N 37°56' E 023°37'0 0.0
2018-Feb-14 18:00N 37°56' E 023°37'0 0.0
2018-Feb-14 17:31N 37°56' E 023°37'0 0.0
2018-Feb-14 17:01N 37°56' E 023°37'0 0.0
2018-Feb-14 16:31N 37°56' E 023°37'0 0.0
2018-Feb-14 16:00N 37°56' E 023°37'0 0.0
2018-Feb-14 15:30N 37°56' E 023°37'0 0.0
2018-Feb-14 15:01N 37°56' E 023°37'0 0.0
2018-Feb-14 14:31N 37°56' E 023°37'2 4.1
2018-Feb-14 14:00N 37°57' E 023°35'1 1.7
2018-Feb-14 13:30N 37°56' E 023°35'0 0.3
2018-Feb-14 13:01N 37°57' E 023°35'1 1.3
2018-Feb-14 12:30N 37°57' E 023°35'1 2.1
2018-Feb-14 11:59N 37°57' E 023°37'0 0.0
2018-Feb-14 11:31N 37°57' E 023°37'0 0.0
2018-Feb-14 11:01N 37°57' E 023°37'0 0.0
2018-Feb-14 10:31N 37°57' E 023°37'0 0.0
2018-Feb-14 10:01N 37°57' E 023°37'0 0.0
2018-Feb-14 09:30N 37°57' E 023°37'0 0.0
2018-Feb-14 09:01N 37°57' E 023°37'0 0.0
2018-Feb-14 08:31N 37°57' E 023°37'0 0.0
2018-Feb-14 08:01N 37°57' E 023°37'0 0.6
2018-Feb-14 07:31N 37°57' E 023°36'1 1.4
2018-Feb-14 07:00N 37°57' E 023°36'1 1.4
2018-Feb-14 06:30N 37°57' E 023°35'1 2.0
2018-Feb-14 06:00N 37°58' E 023°36'1 2.1
2018-Feb-14 05:31N 37°57' E 023°36'1 1.8
2018-Feb-14 05:00N 37°56' E 023°37'0 0.0
2018-Feb-14 04:30N 37°56' E 023°37'0 0.0
2018-Feb-14 04:00N 37°56' E 023°37'0 0.0
2018-Feb-14 03:30N 37°56' E 023°37'0 0.0
2018-Feb-13 11:53N 37°56' E 023°37'0 0.0
2018-Feb-13 11:30N 37°56' E 023°37'0 0.0
2018-Feb-13 11:00N 37°56' E 023°37'0 0.0
2018-Feb-13 10:30N 37°56' E 023°37'0 0.0
2018-Feb-13 10:00N 37°56' E 023°37'0 0.0
2018-Feb-13 09:30N 37°56' E 023°37'0 0.0
2018-Feb-13 09:00N 37°56' E 023°37'4 7.4
2018-Feb-13 08:31N 37°58' E 023°33'2 3.7
2018-Feb-13 08:00N 37°59' E 023°33'3 6.4
2018-Feb-13 07:31N 38°02' E 023°31'0 0.5
2018-Feb-13 06:59N 38°02' E 023°30'0 0.0
2018-Feb-13 06:30N 38°02' E 023°30'0 0.0
2018-Feb-13 06:00N 38°02' E 023°30'0 0.0
2018-Feb-13 05:30N 38°02' E 023°30'0 0.0
2018-Feb-13 05:00N 38°02' E 023°30'0 0.0
2018-Feb-13 04:30N 38°02' E 023°30'0 0.0
2018-Feb-13 04:00N 38°02' E 023°30'0 0.0
2018-Feb-13 03:30N 38°02' E 023°30'0 0.0
2018-Feb-13 03:00N 38°02' E 023°30'0 0.0
2018-Feb-13 02:30N 38°02' E 023°30'0 0.0
2018-Feb-13 02:00N 38°02' E 023°30'0 0.0
2018-Feb-13 01:30N 38°02' E 023°30'0 0.0
2018-Feb-13 01:00N 38°02' E 023°30'0 0.0
2018-Feb-13 00:30N 38°02' E 023°30'0 0.0
2018-Feb-13 00:00N 38°02' E 023°30'0 0.0
2018-Feb-12 23:30N 38°02' E 023°30'0 0.0
2018-Feb-12 23:00N 38°02' E 023°30'0 0.0
2018-Feb-12 22:30N 38°02' E 023°30'0 0.0
2018-Feb-12 22:00N 38°02' E 023°30'0 0.7
2018-Feb-12 21:30N 38°02' E 023°31'0 0.7
2018-Feb-12 21:00N 38°02' E 023°30'0 0.0
2018-Feb-12 20:30N 38°02' E 023°30'0 0.0
2018-Feb-12 20:00N 38°02' E 023°30'0 0.0
2018-Feb-12 19:30N 38°02' E 023°30'0 0.0
2018-Feb-12 19:00N 38°02' E 023°30'0 0.0
2018-Feb-12 18:30N 38°02' E 023°30'0 0.0
2018-Feb-12 18:00N 38°02' E 023°30'0 0.0
2018-Feb-12 17:30N 38°02' E 023°30'0 0.0
2018-Feb-12 17:00N 38°02' E 023°30'0 0.0
2018-Feb-12 16:30N 38°02' E 023°30'0 0.0
2018-Feb-12 16:00N 38°02' E 023°30'0 0.0
2018-Feb-12 15:30N 38°02' E 023°30'0 0.0
2018-Feb-12 15:00N 38°02' E 023°30'0 0.0
2018-Feb-12 14:30N 38°02' E 023°30'0 0.0
2018-Feb-12 14:00N 38°02' E 023°30'0 0.0
2018-Feb-12 13:30N 38°02' E 023°30'0 0.0
2018-Feb-12 13:00N 38°02' E 023°30'0 0.0
2018-Feb-12 12:30N 38°02' E 023°30'0 0.0
2018-Feb-12 12:00N 38°02' E 023°30'0 0.0
2018-Feb-12 11:30N 38°02' E 023°30'0 0.0
2018-Feb-12 11:00N 38°02' E 023°30'0 0.0
2018-Feb-12 10:30N 38°02' E 023°30'0 0.0
2018-Feb-12 09:59N 38°02' E 023°30'0 0.0
2018-Feb-12 09:30N 38°02' E 023°30'0 0.0
2018-Feb-12 09:00N 38°02' E 023°30'0 0.0
2018-Feb-12 08:30N 38°02' E 023°30'0 0.0
2018-Feb-12 08:00N 38°02' E 023°30'0 0.0
2018-Feb-12 07:30N 38°02' E 023°30'0 0.0
2018-Feb-12 07:00N 38°02' E 023°30'0 0.0
2018-Feb-12 06:30N 38°02' E 023°30'0 0.0
2018-Feb-12 06:00N 38°02' E 023°30'0 0.0
2018-Feb-12 05:30N 38°02' E 023°30'0 0.0
2018-Feb-12 05:00N 38°02' E 023°30'0 0.0
2018-Feb-12 04:30N 38°02' E 023°30'0 0.0
2018-Feb-12 04:00N 38°02' E 023°30'0 0.0
2018-Feb-12 03:30N 38°02' E 023°30'0 0.0
2018-Feb-12 03:00N 38°02' E 023°30'0 0.0
2018-Feb-12 02:30N 38°02' E 023°30'0 0.0
2018-Feb-12 02:00N 38°02' E 023°30'0 0.0
2018-Feb-12 01:30N 38°02' E 023°30'0 0.0
2018-Feb-12 01:00N 38°02' E 023°30'0 0.0
2018-Feb-12 00:30N 38°02' E 023°30'0 0.0
2018-Feb-12 00:00N 38°02' E 023°30'0 0.0
2018-Feb-11 23:30N 38°02' E 023°30'0 0.0
2018-Feb-11 23:00N 38°02' E 023°30'0 0.0
2018-Feb-11 22:30N 38°02' E 023°30'0 0.0
2018-Feb-11 22:00N 38°02' E 023°30'0 0.0
2018-Feb-11 21:30N 38°02' E 023°30'0 0.0
2018-Feb-11 21:00N 38°02' E 023°30'0 0.0
2018-Feb-11 20:30N 38°02' E 023°30'0 0.0
2018-Feb-11 20:00N 38°02' E 023°30'0 0.0
2018-Feb-11 19:30N 38°02' E 023°30'0 0.0
2018-Feb-11 19:00N 38°02' E 023°30'0 0.0
2018-Feb-11 18:30N 38°02' E 023°30'0 0.0
2018-Feb-11 18:00N 38°02' E 023°30'0 1.0
2018-Feb-11 17:30N 38°02' E 023°31'510.3
2018-Feb-11 17:00N 37°57' E 023°34'3 6.2
2018-Feb-11 16:30N 37°56' E 023°37'  

Dump ship's entire track history